createdAt,value
2023-02-28T00:01:30.334Z,35.30
2023-02-28T00:03:58.654Z,34.83
2023-02-28T00:06:27.073Z,32.83
2023-02-28T00:08:54.954Z,32.77
2023-02-28T00:11:23.606Z,34.03
2023-02-28T00:13:51.421Z,33.17
2023-02-28T00:16:23.984Z,28.60
2023-02-28T00:18:52.144Z,26.33
2023-02-28T00:21:21.348Z,25.77
2023-02-28T00:23:49.903Z,26.13
2023-02-28T00:26:19.166Z,25.27
2023-02-28T00:28:49.643Z,23.97
2023-02-28T00:31:18.099Z,26.33
2023-02-28T00:33:45.880Z,24.33
2023-02-28T00:36:16.337Z,24.67
2023-02-28T00:38:44.267Z,24.23
2023-02-28T00:41:12.838Z,24.57
2023-02-28T00:43:40.988Z,24.60
2023-02-28T00:46:09.363Z,25.57
2023-02-28T00:48:38.885Z,26.63
2023-02-28T00:51:08.701Z,26.70
2023-02-28T00:53:37.741Z,25.40
2023-02-28T00:56:06.019Z,24.73
2023-02-28T00:58:34.169Z,26.67
2023-02-28T01:01:02.711Z,25.33
2023-02-28T01:03:30.573Z,27.47
2023-02-28T01:06:00.244Z,26.23
2023-02-28T01:08:28.160Z,25.37
2023-02-28T01:10:56.178Z,27.90
2023-02-28T01:13:24.524Z,27.97
2023-02-28T01:15:55.833Z,28.10
2023-02-28T01:18:24.062Z,27.30
2023-02-28T01:20:53.447Z,25.47
2023-02-28T01:23:22.962Z,25.77
2023-02-28T01:25:51.814Z,28.03
2023-02-28T01:28:19.824Z,26.70
2023-02-28T01:30:52.012Z,26.67
2023-02-28T01:33:20.577Z,27.90
2023-02-28T01:35:48.812Z,27.90
2023-02-28T01:38:22.437Z,27.77
2023-02-28T01:40:50.976Z,26.97
2023-02-28T01:43:25.400Z,26.70
2023-02-28T01:45:55.612Z,28.00
2023-02-28T01:48:31.950Z,26.53
2023-02-28T01:51:06.790Z,27.80
2023-02-28T01:53:38.768Z,25.73
2023-02-28T01:56:10.112Z,28.13
2023-02-28T01:58:38.238Z,26.63
2023-02-28T02:01:06.292Z,28.53
2023-02-28T02:03:37.115Z,27.97
2023-02-28T02:06:05.236Z,28.10
2023-02-28T02:08:32.604Z,28.77
2023-02-28T02:11:02.438Z,29.83
2023-02-28T02:13:57.388Z,31.97
2023-02-28T02:16:54.989Z,30.27
2023-02-28T02:19:31.352Z,31.23
2023-02-28T02:21:59.339Z,32.27
2023-02-28T02:24:59.141Z,30.33
2023-02-28T02:27:39.617Z,32.50
2023-02-28T02:30:34.236Z,32.60
2023-02-28T02:33:20.138Z,31.90
2023-02-28T02:36:05.692Z,32.33
2023-02-28T02:38:42.616Z,33.30
2023-02-28T02:41:22.332Z,38.93
2023-02-28T02:44:06.029Z,38.90
2023-02-28T02:46:35.338Z,39.30
2023-02-28T02:49:08.636Z,34.50
2023-02-28T02:51:37.872Z,33.13
2023-02-28T02:54:18.519Z,33.30
2023-02-28T02:56:51.050Z,36.07
2023-02-28T02:59:23.002Z,36.03
2023-02-28T03:01:54.551Z,33.60
2023-02-28T03:04:24.607Z,36.10
2023-02-28T03:06:56.156Z,34.07
2023-02-28T03:09:25.667Z,34.50
2023-02-28T03:11:57.433Z,33.60
2023-02-28T03:14:49.426Z,34.80
2023-02-28T03:17:32.492Z,35.63
2023-02-28T03:20:33.020Z,35.03
2023-02-28T03:23:16.233Z,34.77
2023-02-28T03:25:57.948Z,33.87
2023-02-28T03:28:33.242Z,34.13
2023-02-28T03:31:16.419Z,35.27
2023-02-28T03:33:55.793Z,36.00
2023-02-28T03:36:45.059Z,36.43
2023-02-28T03:39:21.072Z,35.47
2023-02-28T03:42:21.056Z,36.30
2023-02-28T03:45:13.156Z,33.87
2023-02-28T03:47:50.609Z,36.30
2023-02-28T03:50:28.921Z,35.53
2023-02-28T03:53:05.891Z,34.47
2023-02-28T03:55:40.743Z,35.90
2023-02-28T03:58:23.756Z,34.37
2023-02-28T04:00:58.258Z,37.10
2023-02-28T04:03:26.125Z,35.97
2023-02-28T04:05:58.223Z,36.00
2023-02-28T04:08:26.031Z,34.13
2023-02-28T04:11:07.890Z,36.17
2023-02-28T04:13:35.607Z,37.60
2023-02-28T04:16:02.983Z,35.73
2023-02-28T04:18:30.672Z,36.20
2023-02-28T04:21:01.604Z,34.93
2023-02-28T04:23:29.318Z,36.83
2023-02-28T04:25:57.040Z,36.73
2023-02-28T04:28:24.985Z,35.97
2023-02-28T04:31:00.994Z,35.90
2023-02-28T04:33:29.206Z,36.07
2023-02-28T04:36:02.038Z,37.53
2023-02-28T04:38:31.720Z,38.50
2023-02-28T04:41:00.625Z,37.90
2023-02-28T04:43:29.439Z,38.07
2023-02-28T04:45:58.213Z,36.97
2023-02-28T04:48:28.432Z,36.30
2023-02-28T04:50:56.069Z,36.67
2023-02-28T04:53:23.705Z,36.87
2023-02-28T04:55:51.482Z,36.97
2023-02-28T04:58:19.204Z,38.10
2023-02-28T05:00:46.553Z,35.93
2023-02-28T05:03:14.279Z,39.33
2023-02-28T05:05:41.870Z,38.90
2023-02-28T05:08:10.970Z,39.63
2023-02-28T05:10:38.732Z,37.10
2023-02-28T05:13:06.454Z,38.07
2023-02-28T05:15:35.659Z,39.63
2023-02-28T05:18:03.531Z,40.50
2023-02-28T05:20:31.045Z,40.00
2023-02-28T05:23:00.479Z,40.73
2023-02-28T05:25:28.184Z,40.90
2023-02-28T05:27:55.752Z,41.83
2023-02-28T05:30:23.257Z,41.10
2023-02-28T05:32:53.803Z,39.20
2023-02-28T05:35:21.385Z,41.27
2023-02-28T05:37:49.267Z,41.10
2023-02-28T05:40:17.808Z,38.93
2023-02-28T05:42:45.604Z,38.37
2023-02-28T05:45:15.703Z,39.27
2023-02-28T05:47:43.668Z,38.53
2023-02-28T05:50:11.783Z,40.00
2023-02-28T05:52:39.473Z,40.17
2023-02-28T05:55:07.724Z,39.87
2023-02-28T05:57:35.609Z,36.83
2023-02-28T06:00:04.563Z,39.07
2023-02-28T06:02:42.202Z,40.17
2023-02-28T06:05:18.853Z,38.70
2023-02-28T06:07:46.878Z,41.03
2023-02-28T06:10:15.210Z,40.67
2023-02-28T06:12:43.631Z,42.47
2023-02-28T06:15:15.783Z,41.33
2023-02-28T06:17:44.926Z,41.07
2023-02-28T06:20:16.899Z,38.70
2023-02-28T06:22:45.497Z,40.53
2023-02-28T06:25:13.202Z,41.60
2023-02-28T06:27:40.943Z,42.20
2023-02-28T06:30:09.288Z,42.80
2023-02-28T06:32:37.364Z,41.27
2023-02-28T06:35:05.078Z,39.10
2023-02-28T06:37:33.887Z,39.40
2023-02-28T06:40:01.275Z,40.10
2023-02-28T06:42:29.964Z,39.77
2023-02-28T06:44:57.760Z,39.50
2023-02-28T06:47:25.272Z,37.93
2023-02-28T06:49:52.459Z,39.47
2023-02-28T06:52:20.349Z,38.43
2023-02-28T06:54:47.633Z,40.10
2023-02-28T06:57:15.168Z,40.20
2023-02-28T06:59:42.788Z,41.17
2023-02-28T07:02:10.237Z,43.27
2023-02-28T07:04:37.514Z,41.23
2023-02-28T07:07:05.010Z,44.63
2023-02-28T07:09:32.187Z,43.87
2023-02-28T07:12:02.737Z,47.47
2023-02-28T07:14:30.001Z,63.73
2023-02-28T07:16:57.469Z,102.57
2023-02-28T07:19:24.587Z,121.57
2023-02-28T07:21:52.069Z,127.70
2023-02-28T07:24:19.433Z,143.87
2023-02-28T07:26:47.287Z,134.97
2023-02-28T07:29:14.441Z,117.57
2023-02-28T07:31:41.862Z,102.40
2023-02-28T07:34:09.305Z,96.97
2023-02-28T07:36:36.960Z,90.33
2023-02-28T07:39:05.320Z,97.23
2023-02-28T07:41:35.082Z,103.87
2023-02-28T07:44:02.642Z,97.47
2023-02-28T07:46:36.409Z,84.90
2023-02-28T07:49:04.259Z,76.83
2023-02-28T07:51:31.994Z,74.03
2023-02-28T07:53:59.363Z,75.80
2023-02-28T07:56:27.116Z,70.23
2023-02-28T07:58:55.067Z,72.07
2023-02-28T08:01:22.898Z,75.40
2023-02-28T08:03:50.368Z,76.03
2023-02-28T08:06:21.107Z,73.00
2023-02-28T08:08:48.430Z,69.70
2023-02-28T08:11:18.159Z,64.60
2023-02-28T08:13:46.597Z,65.67
2023-02-28T08:16:23.215Z,59.70
2023-02-28T08:18:52.712Z,55.80
2023-02-28T08:21:20.792Z,58.83
2023-02-28T08:23:49.957Z,57.47
2023-02-28T08:26:21.008Z,51.27
2023-02-28T08:28:48.794Z,51.97
2023-02-28T08:31:17.722Z,51.50
2023-02-28T08:33:45.735Z,48.60
2023-02-28T08:36:13.571Z,47.70
2023-02-28T08:38:41.159Z,45.80
2023-02-28T08:41:10.866Z,46.47
2023-02-28T08:43:39.381Z,43.47
2023-02-28T08:46:07.601Z,42.63
2023-02-28T08:48:38.928Z,42.37
2023-02-28T08:51:08.876Z,47.40
2023-02-28T08:53:40.814Z,46.73
2023-02-28T08:56:13.973Z,41.37
2023-02-28T08:58:41.676Z,37.03
2023-02-28T09:01:14.721Z,33.17
2023-02-28T09:03:43.286Z,32.33
2023-02-28T09:06:12.612Z,32.38
2023-02-28T09:08:41.128Z,30.25
2023-02-28T09:11:10.078Z,29.17
2023-02-28T09:13:38.175Z,29.42
2023-02-28T09:16:08.066Z,29.67
2023-02-28T09:18:38.574Z,16.35
2023-02-28T09:21:07.611Z,13.63
2023-02-28T09:23:35.747Z,12.55
2023-02-28T09:26:03.046Z,14.45
2023-02-28T09:28:30.793Z,12.90
2023-02-28T09:30:59.949Z,12.13
2023-02-28T09:33:27.747Z,14.30
2023-02-28T09:36:01.873Z,12.43
2023-02-28T09:38:30.096Z,11.63
2023-02-28T09:41:01.567Z,12.05
2023-02-28T09:43:38.798Z,11.77
2023-02-28T09:46:18.093Z,12.32
2023-02-28T09:48:48.074Z,13.82
2023-02-28T09:51:37.130Z,12.38
2023-02-28T10:07:51.155Z,6.93
2023-02-28T10:10:45.056Z,6.55
2023-02-28T10:13:35.769Z,7.00
2023-02-28T10:16:15.786Z,7.75
2023-02-28T10:18:58.655Z,7.20
2023-02-28T10:21:44.531Z,4.50
2023-02-28T10:24:18.310Z,4.78
2023-02-28T10:26:47.217Z,7.68
2023-02-28T10:29:15.261Z,7.20
2023-02-28T10:31:43.626Z,8.70
2023-02-28T10:34:14.344Z,8.80
2023-02-28T10:36:44.901Z,9.17
2023-02-28T10:39:47.659Z,9.27
2023-02-28T10:42:29.945Z,8.85
2023-02-28T10:45:17.196Z,8.38
2023-02-28T10:48:01.946Z,8.80
2023-02-28T10:50:32.558Z,8.48
2023-02-28T10:53:36.157Z,11.38
2023-02-28T10:56:18.250Z,10.25
2023-02-28T10:58:54.789Z,9.60
2023-02-28T11:01:26.193Z,6.05
2023-02-28T11:03:54.293Z,6.50
2023-02-28T11:06:22.233Z,7.47
2023-02-28T11:09:00.352Z,8.13
2023-02-28T11:11:32.744Z,8.93
2023-02-28T11:14:17.428Z,6.93
2023-02-28T11:16:45.914Z,7.68
2023-02-28T11:19:27.549Z,5.65
2023-02-28T11:22:02.887Z,8.77
2023-02-28T11:24:33.653Z,6.95
2023-02-28T11:27:01.239Z,8.07
2023-02-28T11:29:34.441Z,7.22
2023-02-28T11:32:06.952Z,7.28
2023-02-28T11:34:35.145Z,6.35
2023-02-28T11:37:06.532Z,6.63
2023-02-28T11:39:34.867Z,8.77
2023-02-28T11:42:08.271Z,6.25
2023-02-28T11:44:59.605Z,7.30
2023-02-28T11:47:58.744Z,8.32
2023-02-28T11:50:50.963Z,8.93
2023-02-28T11:53:33.410Z,8.20
2023-02-28T11:56:12.542Z,6.78
2023-02-28T11:58:40.862Z,8.00
2023-02-28T12:01:25.686Z,6.45
2023-02-28T12:04:31.436Z,6.80
2023-02-28T12:07:10.612Z,7.20
2023-02-28T12:09:45.264Z,8.13
2023-02-28T12:12:35.914Z,7.32
2023-02-28T12:15:09.542Z,7.45
2023-02-28T12:17:56.774Z,7.70
2023-02-28T12:20:38.249Z,6.78
2023-02-28T12:23:27.360Z,6.28
2023-02-28T12:26:13.219Z,6.68
2023-02-28T12:28:49.088Z,6.65
2023-02-28T12:31:29.178Z,7.15
2023-02-28T12:34:26.445Z,8.23
2023-02-28T12:36:57.074Z,9.00
2023-02-28T12:39:36.518Z,9.45
2023-02-28T12:42:15.509Z,7.70
2023-02-28T12:44:50.773Z,5.72
2023-02-28T12:47:19.916Z,7.50
2023-02-28T12:49:53.386Z,7.05
2023-02-28T12:52:45.953Z,6.80
2023-02-28T12:55:21.590Z,6.43
2023-02-28T12:57:48.971Z,6.18
2023-02-28T13:00:24.147Z,6.10
2023-02-28T13:03:16.907Z,6.30
2023-02-28T13:05:59.647Z,7.28
2023-02-28T13:08:54.561Z,6.47
2023-02-28T13:11:39.483Z,7.50
2023-02-28T13:14:26.181Z,7.47
2023-02-28T13:17:13.585Z,7.18
2023-02-28T13:19:56.226Z,6.90
2023-02-28T13:22:27.658Z,7.03
2023-02-28T13:24:57.477Z,7.90
2023-02-28T13:27:42.012Z,7.13
2023-02-28T13:30:46.985Z,6.80
2023-02-28T13:33:33.166Z,6.80
2023-02-28T13:36:20.739Z,7.43
2023-02-28T13:38:49.126Z,6.47
2023-02-28T13:41:35.794Z,6.82
2023-02-28T13:44:16.723Z,7.13
2023-02-28T13:46:50.517Z,12.18
2023-02-28T13:49:33.176Z,11.35
2023-02-28T13:52:10.336Z,7.90
2023-02-28T13:55:06.338Z,7.38
2023-02-28T13:57:52.633Z,6.88
2023-02-28T14:00:36.746Z,6.47
2023-02-28T14:03:30.215Z,8.63
2023-02-28T14:06:20.738Z,7.88
2023-02-28T14:09:05.541Z,7.97
2023-02-28T14:11:40.149Z,9.88
2023-02-28T14:14:10.082Z,7.90
2023-02-28T14:16:52.202Z,9.52
2023-02-28T14:19:28.149Z,9.45
2023-02-28T14:22:24.390Z,9.57
2023-02-28T14:25:11.996Z,11.82
2023-02-28T14:28:17.075Z,10.55
2023-02-28T14:31:01.388Z,12.07
2023-02-28T14:33:35.108Z,12.07
2023-02-28T14:36:02.773Z,12.30
2023-02-28T14:38:44.031Z,11.13
2023-02-28T14:41:22.706Z,9.52
2023-02-28T14:43:57.110Z,8.77
2023-02-28T14:46:29.029Z,9.23
2023-02-28T14:48:58.258Z,10.05
2023-02-28T14:51:26.904Z,11.15
2023-02-28T14:54:00.260Z,12.20
2023-02-28T14:56:39.717Z,24.63
2023-02-28T14:59:26.727Z,11.90
2023-02-28T15:02:17.515Z,14.10
2023-02-28T15:05:01.470Z,10.65
2023-02-28T15:07:30.516Z,11.70
2023-02-28T15:10:13.658Z,17.15
2023-02-28T15:12:42.698Z,20.58
2023-02-28T15:15:18.673Z,34.78
2023-02-28T15:17:53.782Z,30.63
2023-02-28T15:20:22.788Z,30.07
2023-02-28T15:22:54.164Z,34.67
2023-02-28T15:25:23.600Z,27.73
2023-02-28T15:27:55.991Z,24.77
2023-02-28T15:30:32.491Z,26.87
2023-02-28T15:33:26.142Z,25.27
2023-02-28T15:36:17.104Z,32.93
2023-02-28T15:38:45.392Z,31.97
2023-02-28T15:41:25.920Z,35.87
2023-02-28T15:44:18.652Z,33.30
2023-02-28T15:47:02.720Z,38.47
2023-02-28T15:49:54.369Z,30.57
2023-02-28T15:52:43.676Z,23.00
2023-02-28T15:55:23.993Z,20.47
2023-02-28T15:58:01.155Z,27.23
2023-02-28T16:00:35.266Z,30.97
2023-02-28T16:03:27.590Z,36.20
2023-02-28T16:06:17.629Z,36.33
2023-02-28T16:08:46.769Z,41.53
2023-02-28T16:11:14.790Z,43.10
2023-02-28T16:13:42.949Z,44.20
2023-02-28T16:16:20.908Z,45.57
2023-02-28T16:18:49.425Z,52.20
2023-02-28T16:21:17.437Z,57.57
2023-02-28T16:23:45.966Z,69.47
2023-02-28T16:26:28.699Z,49.07
2023-02-28T16:28:57.574Z,49.87
2023-02-28T16:31:25.991Z,62.00
2023-02-28T16:33:57.992Z,42.43
2023-02-28T16:36:26.726Z,37.80
2023-02-28T16:38:56.422Z,33.20
2023-02-28T16:41:27.363Z,73.10
2023-02-28T16:44:01.374Z,63.37
2023-02-28T16:46:34.575Z,51.90
2023-02-28T16:49:02.876Z,80.53
2023-02-28T16:51:33.392Z,44.10
2023-02-28T16:54:03.128Z,39.60
2023-02-28T16:56:31.448Z,31.53
2023-02-28T16:59:02.707Z,30.67
2023-02-28T17:01:31.184Z,25.23
2023-02-28T17:03:59.883Z,13.77
2023-02-28T17:06:30.429Z,12.23
2023-02-28T17:09:00.793Z,12.30
2023-02-28T17:11:29.018Z,18.70
2023-02-28T17:13:57.916Z,17.37
2023-02-28T17:16:34.784Z,13.60
2023-02-28T17:19:06.099Z,17.83
2023-02-28T17:21:35.959Z,19.70
2023-02-28T17:24:04.523Z,20.67
2023-02-28T17:26:33.213Z,16.67
2023-02-28T17:29:02.104Z,17.00
2023-02-28T17:31:32.367Z,14.73
2023-02-28T17:34:01.444Z,12.87
2023-02-28T17:36:30.088Z,13.13
2023-02-28T17:38:59.762Z,11.67
2023-02-28T17:41:28.422Z,11.90
2023-02-28T17:43:57.485Z,11.20
2023-02-28T17:46:26.144Z,10.60
2023-02-28T17:48:55.619Z,10.03
2023-02-28T17:51:25.805Z,10.03
2023-02-28T17:53:54.284Z,9.97
2023-02-28T17:56:25.129Z,9.70
2023-02-28T17:58:55.953Z,9.37
2023-02-28T18:01:26.707Z,8.53
2023-02-28T18:03:57.008Z,8.33
2023-02-28T18:06:28.884Z,7.60
2023-02-28T18:08:57.292Z,8.07
2023-02-28T18:11:25.750Z,8.23
2023-02-28T18:13:56.941Z,8.37
2023-02-28T18:16:24.692Z,8.37
2023-02-28T18:18:54.067Z,8.33
2023-02-28T18:21:23.674Z,8.43
2023-02-28T18:23:54.382Z,10.87
2023-02-28T18:26:23.164Z,25.87
2023-02-28T18:28:51.572Z,18.17
2023-02-28T18:31:21.078Z,16.70
2023-02-28T18:33:51.243Z,28.17
2023-02-28T18:36:23.043Z,28.70
2023-02-28T18:38:52.315Z,22.90
2023-02-28T18:41:22.351Z,25.40
2023-02-28T18:43:52.235Z,34.63
2023-02-28T18:46:21.453Z,27.40
2023-02-28T18:48:49.706Z,31.10
2023-02-28T18:51:21.001Z,27.77
2023-02-28T18:53:49.696Z,26.03
2023-02-28T18:56:19.853Z,18.07
2023-02-28T18:58:48.206Z,12.70
2023-02-28T19:01:19.397Z,22.20
2023-02-28T19:03:48.216Z,32.80
2023-02-28T19:06:16.974Z,30.70
2023-02-28T19:08:45.431Z,24.70
2023-02-28T19:11:17.080Z,18.80
2023-02-28T19:13:46.711Z,16.63
2023-02-28T19:16:19.731Z,16.50
2023-02-28T19:18:48.293Z,14.20
2023-02-28T19:21:17.526Z,17.30
2023-02-28T19:23:45.937Z,21.57
2023-02-28T19:26:21.744Z,22.03
2023-02-28T19:28:51.423Z,21.97
2023-02-28T19:31:24.260Z,21.73
2023-02-28T19:33:53.240Z,22.07
2023-02-28T19:36:22.276Z,19.67
2023-02-28T19:38:51.319Z,20.07
2023-02-28T19:41:20.215Z,17.67
2023-02-28T19:43:49.294Z,17.13
2023-02-28T19:46:19.147Z,23.50
2023-02-28T19:48:49.134Z,23.60
2023-02-28T19:53:47.494Z,26.67
2023-02-28T19:56:16.386Z,22.13
2023-02-28T19:58:45.438Z,19.63
2023-02-28T20:01:16.674Z,17.53
2023-02-28T20:03:51.993Z,17.07
2023-02-28T20:06:20.587Z,13.53
2023-02-28T20:08:54.932Z,11.53
2023-02-28T20:11:22.915Z,11.13
2023-02-28T20:13:54.065Z,12.03
2023-02-28T20:16:21.744Z,11.97
2023-02-28T20:18:51.685Z,15.13
2023-02-28T20:21:20.642Z,14.40
2023-02-28T20:23:49.254Z,15.93
2023-02-28T20:26:20.433Z,17.03
2023-02-28T20:28:49.011Z,20.23
2023-02-28T20:31:19.880Z,20.70
2023-02-28T20:33:50.778Z,20.03
2023-02-28T20:36:24.582Z,18.90
2023-02-28T20:38:53.349Z,18.80
2023-02-28T20:41:21.714Z,17.37
2023-02-28T20:43:58.425Z,14.43
2023-02-28T20:46:27.371Z,12.37
2023-02-28T20:48:56.269Z,12.93
2023-02-28T20:51:25.972Z,16.40
2023-02-28T20:53:54.752Z,14.77
2023-02-28T20:56:26.111Z,15.67
2023-02-28T20:58:58.259Z,16.13
2023-02-28T21:01:27.560Z,15.63
2023-02-28T21:04:00.658Z,14.83
2023-02-28T21:06:31.442Z,13.73
2023-02-28T21:08:59.808Z,15.03
2023-02-28T21:11:32.828Z,14.80
2023-02-28T21:14:06.480Z,16.60
2023-02-28T21:16:37.604Z,15.27
2023-02-28T21:19:07.196Z,17.53
2023-02-28T21:21:43.983Z,19.90
2023-02-28T21:24:13.108Z,15.37
2023-02-28T21:26:43.046Z,17.47
2023-02-28T21:29:12.892Z,21.23
2023-02-28T21:31:41.647Z,19.53
2023-02-28T21:34:11.767Z,18.07
2023-02-28T21:36:43.364Z,18.13
2023-02-28T21:39:16.171Z,18.53
2023-02-28T21:41:44.157Z,17.60
2023-02-28T21:44:19.678Z,17.67
2023-02-28T21:46:49.798Z,17.47
2023-02-28T21:49:18.114Z,16.33
2023-02-28T21:51:45.978Z,16.00
2023-02-28T21:54:14.389Z,16.63
2023-02-28T21:56:42.797Z,18.77
2023-02-28T21:59:10.901Z,18.20
2023-02-28T22:01:41.416Z,19.03
2023-02-28T22:04:11.585Z,17.60
2023-02-28T22:06:41.500Z,18.13
2023-02-28T22:09:10.853Z,20.27
2023-02-28T22:11:39.514Z,21.13
2023-02-28T22:14:12.317Z,22.37
2023-02-28T22:16:56.176Z,22.17
2023-02-28T22:19:25.033Z,23.27
2023-02-28T22:21:54.296Z,24.23
2023-02-28T22:24:24.854Z,26.47
2023-02-28T22:26:54.454Z,37.33
2023-02-28T22:29:23.511Z,36.50
2023-02-28T22:31:51.767Z,38.77
2023-02-28T22:34:20.901Z,36.40
2023-02-28T22:36:49.446Z,40.53
2023-02-28T22:39:17.660Z,54.37
2023-02-28T22:41:45.954Z,46.47
2023-02-28T22:44:14.191Z,40.83
2023-02-28T22:46:42.147Z,43.70
2023-02-28T22:49:10.411Z,45.43
2023-02-28T22:51:38.428Z,50.13
2023-02-28T22:54:06.806Z,51.60
2023-02-28T22:56:34.869Z,43.87
2023-02-28T22:59:03.181Z,42.33
2023-02-28T23:01:33.654Z,34.13
2023-02-28T23:04:03.517Z,37.00
2023-02-28T23:06:35.028Z,35.87
2023-02-28T23:09:06.930Z,34.93
2023-02-28T23:11:38.671Z,28.40
2023-02-28T23:14:07.285Z,29.90
2023-02-28T23:16:39.254Z,31.00
2023-02-28T23:19:10.222Z,29.53
2023-02-28T23:21:38.836Z,30.33
2023-02-28T23:24:12.025Z,29.83
2023-02-28T23:26:42.087Z,28.07
2023-02-28T23:29:10.565Z,27.00
2023-02-28T23:31:38.779Z,25.73
2023-02-28T23:34:07.656Z,26.37
2023-02-28T23:36:36.001Z,27.27
2023-02-28T23:39:04.426Z,27.70
2023-02-28T23:41:34.826Z,27.67
2023-02-28T23:44:02.994Z,31.10
2023-02-28T23:46:31.309Z,32.37
2023-02-28T23:49:00.262Z,33.23
2023-02-28T23:51:28.068Z,37.10
2023-02-28T23:53:56.077Z,36.17
2023-02-28T23:56:25.471Z,43.77
2023-02-28T23:58:55.564Z,44.50
